Time,TemperatureF,DewpointF,PressureIn,WindDirection,WindDirectionDegrees,WindSpeedMPH,WindSpeedGustMPH,Humidity,HourlyPrecipIn,Conditions,Clouds,dailyrainin,SoftwareType,DateUTC
2013-05-20 00:04:00,55.4,51.0,29.97,SSE,159,0.0,1.0,84,0.00,,,0.00,weatherlink.com 1.10,2013-05-20 07:04:00,
2013-05-20 00:19:00,54.8,50.0,29.97,SSE,153,0.0,0.0,84,0.00,,,0.00,weatherlink.com 1.10,2013-05-20 07:19:00,
2013-05-20 00:34:00,55.2,51.0,29.97,SSW,193,2.0,3.0,85,0.00,,,0.00,weatherlink.com 1.10,2013-05-20 07:34:00,
2013-05-20 00:49:00,55.9,52.0,29.97,South,173,1.0,4.0,86,0.00,,,0.00,weatherlink.com 1.10,2013-05-20 07:49:00,
2013-05-20 01:04:00,56.1,52.0,29.97,SW,226,1.0,3.0,86,0.00,,,0.00,weatherlink.com 1.10,2013-05-20 08:04:00,
2013-05-20 01:19:00,56.0,52.0,29.97,SSW,200,1.0,3.0,87,0.00,,,0.00,weatherlink.com 1.10,2013-05-20 08:19:00,
2013-05-20 01:34:00,55.7,52.0,29.96,SE,139,0.0,3.0,87,0.00,,,0.00,weatherlink.com 1.10,2013-05-20 08:34:00,
2013-05-20 01:49:00,55.2,51.0,29.96,SSE,155,0.0,1.0,87,0.00,,,0.00,weatherlink.com 1.10,2013-05-20 08:49:00,
2013-05-20 02:04:00,54.7,51.0,29.96,SSW,210,1.0,2.0,86,0.00,,,0.00,weatherlink.com 1.10,2013-05-20 09:04:00,
2013-05-20 02:19:00,55.0,51.0,29.96,ESE,106,0.0,1.0,85,0.00,,,0.00,weatherlink.com 1.10,2013-05-20 09:19:00,
2013-05-20 02:34:00,54.4,50.0,29.96,ESE,106,0.0,0.0,85,0.00,,,0.00,weatherlink.com 1.10,2013-05-20 09:34:00,
2013-05-20 02:49:00,54.9,51.0,29.96,ESE,103,3.0,4.0,87,0.00,,,0.00,weatherlink.com 1.10,2013-05-20 09:49:00,
2013-05-20 03:04:00,56.6,51.0,29.96,SW,231,0.0,2.0,82,0.00,,,0.00,weatherlink.com 1.10,2013-05-20 10:04:00,
2013-05-20 03:19:00,57.9,50.0,29.96,East,91,2.0,3.0,75,0.00,,,0.00,weatherlink.com 1.10,2013-05-20 10:19:00,
2013-05-20 03:34:00,59.2,50.0,29.96,East,94,4.0,4.0,71,0.00,,,0.00,weatherlink.com 1.10,2013-05-20 10:34:00,
2013-05-20 03:49:00,60.3,49.0,29.96,East,84,1.0,2.0,67,0.00,,,0.00,weatherlink.com 1.10,2013-05-20 10:49:00,
2013-05-20 04:04:00,58.6,50.0,29.96,WSW,238,1.0,1.0,72,0.00,,,0.00,weatherlink.com 1.10,2013-05-20 11:04:00,
2013-05-20 04:19:00,58.8,49.0,29.96,ENE,60,0.0,1.0,70,0.00,,,0.00,weatherlink.com 1.10,2013-05-20 11:19:00,
2013-05-20 04:34:00,56.6,49.0,29.96,ESE,106,0.0,0.0,75,0.00,,,0.00,weatherlink.com 1.10,2013-05-20 11:34:00,
2013-05-20 04:49:00,56.3,49.0,29.96,SSW,211,0.0,0.0,76,0.00,,,0.00,weatherlink.com 1.10,2013-05-20 11:49:00,
2013-05-20 05:04:00,56.5,48.0,29.96,ESE,110,0.0,0.0,73,0.00,,,0.00,weatherlink.com 1.10,2013-05-20 12:04:00,
2013-05-20 05:19:00,56.9,48.0,29.95,ENE,62,1.0,2.0,72,0.00,,,0.00,weatherlink.com 1.10,2013-05-20 12:19:00,
2013-05-20 05:34:00,56.5,48.0,29.96,ENE,67,0.0,0.0,72,0.00,,,0.00,weatherlink.com 1.10,2013-05-20 12:34:00,
2013-05-20 05:49:00,57.6,47.0,29.96,ENE,70,0.0,0.0,69,0.00,,,0.00,weatherlink.com 1.10,2013-05-20 12:49:00,
2013-05-20 06:04:00,58.8,48.0,29.96,ENE,72,1.0,1.0,67,0.00,,,0.00,weatherlink.com 1.10,2013-05-20 13:04:00,
2013-05-20 06:20:00,56.8,49.0,29.97,ENE,72,0.0,0.0,74,0.00,,,0.00,weatherlink.com 1.10,2013-05-20 13:20:00,
2013-05-20 06:35:00,56.1,50.0,29.97,SE,136,0.0,1.0,81,0.00,,,0.00,weatherlink.com 1.10,2013-05-20 13:35:00,
2013-05-20 06:50:00,55.6,50.0,29.97,SE,136,0.0,0.0,82,0.00,,,0.00,weatherlink.com 1.10,2013-05-20 13:50:00,
2013-05-20 07:05:00,56.7,52.0,29.98,ESE,122,0.0,2.0,83,0.00,,,0.00,weatherlink.com 1.10,2013-05-20 14:05:00,
2013-05-20 07:20:00,58.0,53.0,29.98,South,170,0.0,3.0,83,0.00,,,0.00,weatherlink.com 1.10,2013-05-20 14:20:00,
2013-05-20 07:35:00,61.0,54.0,29.98,South,190,0.0,1.0,77,0.00,,,0.00,weatherlink.com 1.10,2013-05-20 14:35:00,
2013-05-20 07:50:00,61.8,53.0,29.98,SW,222,1.0,2.0,74,0.00,,,0.00,weatherlink.com 1.10,2013-05-20 14:50:00,
2013-05-20 08:05:00,63.7,53.0,29.98,WSW,242,2.0,2.0,69,0.00,,,0.00,weatherlink.com 1.10,2013-05-20 15:05:00,
2013-05-20 08:20:00,63.9,54.0,29.98,WSW,248,2.0,3.0,71,0.00,,,0.00,weatherlink.com 1.10,2013-05-20 15:20:00,
2013-05-20 08:35:00,65.7,55.0,29.98,SE,145,1.0,2.0,69,0.00,,,0.00,weatherlink.com 1.10,2013-05-20 15:35:00,
2013-05-20 08:50:00,67.3,55.0,29.99,WSW,255,2.0,2.0,66,0.00,,,0.00,weatherlink.com 1.10,2013-05-20 15:50:00,
2013-05-20 09:05:00,68.8,56.0,29.99,SW,233,1.0,3.0,63,0.00,,,0.00,weatherlink.com 1.10,2013-05-20 16:05:00,
2013-05-20 09:20:00,69.9,57.0,29.99,WSW,248,2.0,3.0,63,0.00,,,0.00,weatherlink.com 1.10,2013-05-20 16:20:00,
2013-05-20 09:35:00,70.2,57.0,29.99,WSW,246,4.0,5.0,63,0.00,,,0.00,weatherlink.com 1.10,2013-05-20 16:35:00,
2013-05-20 09:50:00,71.1,56.0,29.98,SW,232,4.0,4.0,60,0.00,,,0.00,weatherlink.com 1.10,2013-05-20 16:50:00,
2013-05-20 10:05:00,71.2,57.0,29.98,SW,218,1.0,4.0,61,0.00,,,0.00,weatherlink.com 1.10,2013-05-20 17:05:00,
2013-05-20 10:20:00,71.7,56.0,29.98,SSW,207,3.0,4.0,59,0.00,,,0.00,weatherlink.com 1.10,2013-05-20 17:20:00,
2013-05-20 10:35:00,72.7,56.0,29.98,SSW,201,3.0,4.0,57,0.00,,,0.00,weatherlink.com 1.10,2013-05-20 17:35:00,
2013-05-20 10:50:00,73.1,56.0,29.98,SW,235,7.0,7.0,56,0.00,,,0.00,weatherlink.com 1.10,2013-05-20 17:50:00,
2013-05-20 11:05:00,73.7,57.0,29.98,SW,229,1.0,6.0,56,0.00,,,0.00,weatherlink.com 1.10,2013-05-20 18:05:00,
2013-05-20 11:20:00,74.8,57.0,29.98,SSW,197,3.0,5.0,54,0.00,,,0.00,weatherlink.com 1.10,2013-05-20 18:20:00,
2013-05-20 11:35:00,75.2,55.0,29.98,SSW,201,3.0,7.0,50,0.00,,,0.00,weatherlink.com 1.10,2013-05-20 18:35:00,
2013-05-20 11:50:00,76.8,56.0,29.98,WSW,238,2.0,7.0,48,0.00,,,0.00,weatherlink.com 1.10,2013-05-20 18:50:00,
2013-05-20 12:05:00,77.7,55.0,29.98,SSW,204,3.0,7.0,45,0.00,,,0.00,weatherlink.com 1.10,2013-05-20 19:05:00,
2013-05-20 12:20:00,78.8,55.0,29.97,WSW,245,3.0,7.0,44,0.00,,,0.00,weatherlink.com 1.10,2013-05-20 19:20:00,
2013-05-20 12:35:00,78.8,54.0,29.97,SW,232,4.0,7.0,43,0.00,,,0.00,weatherlink.com 1.10,2013-05-20 19:35:00,
2013-05-20 12:50:00,79.5,55.0,29.97,South,169,2.0,9.0,43,0.00,,,0.00,weatherlink.com 1.10,2013-05-20 19:50:00,
2013-05-20 13:05:00,78.6,53.0,29.97,SE,140,8.0,10.0,41,0.00,,,0.00,weatherlink.com 1.10,2013-05-20 20:05:00,
2013-05-20 13:20:00,77.6,53.0,29.97,South,184,4.0,12.0,42,0.00,,,0.00,weatherlink.com 1.10,2013-05-20 20:20:00,
2013-05-20 13:35:00,75.9,54.0,29.97,SSW,210,6.0,11.0,47,0.00,,,0.00,weatherlink.com 1.10,2013-05-20 20:35:00,
2013-05-20 13:50:00,77.4,55.0,29.96,South,180,10.0,12.0,46,0.00,,,0.00,weatherlink.com 1.10,2013-05-20 20:50:00,
2013-05-20 14:05:00,77.4,53.0,29.96,SE,145,4.0,10.0,43,0.00,,,0.00,weatherlink.com 1.10,2013-05-20 21:05:00,
2013-05-20 14:20:00,75.4,55.0,29.96,SSW,195,7.0,12.0,50,0.00,,,0.00,weatherlink.com 1.10,2013-05-20 21:20:00,
2013-05-20 14:35:00,75.0,56.0,29.96,SE,138,7.0,12.0,52,0.00,,,0.00,weatherlink.com 1.10,2013-05-20 21:35:00,
2013-05-20 14:50:00,76.2,55.0,29.95,SSW,205,3.0,12.0,48,0.00,,,0.00,weatherlink.com 1.10,2013-05-20 21:50:00,
2013-05-20 15:05:00,75.3,52.0,29.95,ESE,123,5.0,14.0,45,0.00,,,0.00,weatherlink.com 1.10,2013-05-20 22:05:00,
2013-05-20 15:20:00,75.0,50.0,29.94,SSE,167,6.0,12.0,41,0.00,,,0.00,weatherlink.com 1.10,2013-05-20 22:20:00,
2013-05-20 15:35:00,74.6,53.0,29.94,SSE,155,14.0,14.0,47,0.00,,,0.00,weatherlink.com 1.10,2013-05-20 22:35:00,
2013-05-20 15:50:00,73.5,52.0,29.93,SSW,210,7.0,14.0,48,0.00,,,0.00,weatherlink.com 1.10,2013-05-20 22:50:00,
2013-05-20 16:05:00,73.7,53.0,29.93,South,172,2.0,13.0,48,0.00,,,0.00,weatherlink.com 1.10,2013-05-20 23:05:00,
2013-05-20 16:20:00,74.1,50.0,29.93,SSE,168,7.0,15.0,43,0.00,,,0.00,weatherlink.com 1.10,2013-05-20 23:20:00,
2013-05-20 16:35:00,72.5,53.0,29.92,South,180,6.0,13.0,51,0.00,,,0.00,weatherlink.com 1.10,2013-05-20 23:35:00,
2013-05-20 16:50:00,69.0,53.0,29.92,South,176,4.0,17.0,58,0.00,,,0.00,weatherlink.com 1.10,2013-05-20 23:50:00,
2013-05-20 17:05:00,68.4,52.0,29.92,SSW,193,6.0,16.0,57,0.00,,,0.00,weatherlink.com 1.10,2013-05-21 00:05:00,
2013-05-20 17:20:00,70.0,52.0,29.92,SE,139,12.0,16.0,53,0.00,,,0.00,weatherlink.com 1.10,2013-05-21 00:20:00,
2013-05-20 17:35:00,69.6,53.0,29.91,South,190,6.0,13.0,56,0.00,,,0.00,weatherlink.com 1.10,2013-05-21 00:35:00,
2013-05-20 17:50:00,67.2,53.0,29.91,SSE,148,7.0,13.0,61,0.00,,,0.00,weatherlink.com 1.10,2013-05-21 00:50:00,
2013-05-20 18:05:00,63.9,53.0,29.92,SSE,152,6.0,16.0,67,0.00,,,0.00,weatherlink.com 1.10,2013-05-21 01:05:00,
2013-05-20 18:20:00,62.7,52.0,29.91,SSE,155,8.0,19.0,69,0.00,,,0.00,weatherlink.com 1.10,2013-05-21 01:20:00,
2013-05-20 18:35:00,61.3,52.0,29.91,SSE,155,7.0,19.0,72,0.00,,,0.00,weatherlink.com 1.10,2013-05-21 01:35:00,
2013-05-20 18:50:00,60.8,52.0,29.91,WSW,248,7.0,14.0,73,0.00,,,0.00,weatherlink.com 1.10,2013-05-21 01:50:00,
2013-05-20 19:05:00,60.3,52.0,29.91,SSW,205,5.0,16.0,74,0.00,,,0.00,weatherlink.com 1.10,2013-05-21 02:05:00,
2013-05-20 19:20:00,60.8,52.0,29.91,SSE,162,2.0,13.0,73,0.00,,,0.00,weatherlink.com 1.10,2013-05-21 02:20:00,
2013-05-20 19:35:00,60.2,52.0,29.91,South,184,6.0,16.0,74,0.00,,,0.00,weatherlink.com 1.10,2013-05-21 02:35:00,
2013-05-20 19:50:00,58.8,51.0,29.91,SSW,197,5.0,16.0,76,0.00,,,0.00,weatherlink.com 1.10,2013-05-21 02:50:00,
2013-05-20 20:05:00,57.0,51.0,29.91,SE,143,6.0,17.0,80,0.00,,,0.00,weatherlink.com 1.10,2013-05-21 03:05:00,
2013-05-20 20:20:00,55.5,50.0,29.92,SSE,155,3.0,14.0,83,0.00,,,0.00,weatherlink.com 1.10,2013-05-21 03:20:00,
2013-05-20 20:35:00,54.5,50.0,29.92,SSE,148,7.0,17.0,85,0.00,,,0.00,weatherlink.com 1.10,2013-05-21 03:35:00,
2013-05-20 20:50:00,53.7,50.0,29.91,SE,124,4.0,16.0,87,0.00,,,0.00,weatherlink.com 1.10,2013-05-21 03:50:00,
2013-05-20 21:06:00,53.0,50.0,29.92,South,186,9.0,21.0,88,0.00,,,0.00,weatherlink.com 1.10,2013-05-21 04:06:00,
2013-05-20 21:21:00,52.7,49.0,29.93,SW,236,13.0,21.0,88,0.00,,,0.00,weatherlink.com 1.10,2013-05-21 04:21:00,
2013-05-20 21:36:00,52.4,49.0,29.93,South,182,5.0,20.0,89,0.00,,,0.00,weatherlink.com 1.10,2013-05-21 04:36:00,
2013-05-20 21:51:00,52.3,49.0,29.93,SSE,148,10.0,18.0,88,0.00,,,0.00,weatherlink.com 1.10,2013-05-21 04:51:00,
2013-05-20 22:06:00,52.2,49.0,29.93,SSE,147,8.0,17.0,88,0.00,,,0.00,weatherlink.com 1.10,2013-05-21 05:06:00,
2013-05-20 22:21:00,52.4,49.0,29.94,SSW,204,9.0,12.0,88,0.00,,,0.00,weatherlink.com 1.10,2013-05-21 05:21:00,
2013-05-20 22:36:00,52.2,49.0,29.93,SSE,162,5.0,13.0,88,0.00,,,0.00,weatherlink.com 1.10,2013-05-21 05:36:00,
2013-05-20 22:51:00,52.2,49.0,29.93,SSE,167,3.0,14.0,88,0.00,,,0.00,weatherlink.com 1.10,2013-05-21 05:51:00,
2013-05-20 23:06:00,52.4,49.0,29.93,SSW,204,9.0,12.0,88,0.00,,,0.00,weatherlink.com 1.10,2013-05-21 06:06:00,
2013-05-20 23:21:00,52.6,49.0,29.93,SSW,203,7.0,14.0,88,0.00,,,0.00,weatherlink.com 1.10,2013-05-21 06:21:00,
2013-05-20 23:36:00,52.4,49.0,29.93,SSE,155,12.0,12.0,88,0.00,,,0.00,weatherlink.com 1.10,2013-05-21 06:36:00,
2013-05-20 23:51:00,52.4,49.0,29.92,South,169,7.0,14.0,88,0.00,,,0.00,weatherlink.com 1.10,2013-05-21 06:51:00,